sensor_id;sensor_type;location;lat;lon;timestamp;P1;durP1;ratioP1;P2;durP2;ratioP2
71975;SDS011;68326;52.124;5.424;2023-04-24T00:02:00;1.10;;;0.20;;
71975;SDS011;68326;52.124;5.424;2023-04-24T00:04:27;0.52;;;0.20;;
71975;SDS011;68326;52.124;5.424;2023-04-24T00:06:53;0.60;;;0.30;;
71975;SDS011;68326;52.124;5.424;2023-04-24T00:09:23;0.63;;;0.20;;
71975;SDS011;68326;52.124;5.424;2023-04-24T00:11:50;0.87;;;0.23;;
71975;SDS011;68326;52.124;5.424;2023-04-24T00:14:16;0.75;;;0.20;;
71975;SDS011;68326;52.124;5.424;2023-04-24T00:16:43;0.55;;;0.30;;
71975;SDS011;68326;52.124;5.424;2023-04-24T00:19:09;0.88;;;0.30;;
71975;SDS011;68326;52.124;5.424;2023-04-24T00:21:38;1.20;;;0.32;;
71975;SDS011;68326;52.124;5.424;2023-04-24T00:24:04;0.80;;;0.30;;
71975;SDS011;68326;52.124;5.424;2023-04-24T00:26:31;1.77;;;0.40;;
71975;SDS011;68326;52.124;5.424;2023-04-24T00:28:57;1.80;;;0.47;;
71975;SDS011;68326;52.124;5.424;2023-04-24T00:31:24;0.93;;;0.40;;
71975;SDS011;68326;52.124;5.424;2023-04-24T00:33:50;1.70;;;0.50;;
71975;SDS011;68326;52.124;5.424;2023-04-24T00:36:17;1.60;;;0.43;;
71975;SDS011;68326;52.124;5.424;2023-04-24T00:38:45;1.08;;;0.45;;
71975;SDS011;68326;52.124;5.424;2023-04-24T00:41:12;1.15;;;0.55;;
71975;SDS011;68326;52.124;5.424;2023-04-24T00:43:39;1.02;;;0.50;;
71975;SDS011;68326;52.124;5.424;2023-04-24T00:46:05;1.73;;;0.45;;
71975;SDS011;68326;52.124;5.424;2023-04-24T00:48:32;1.63;;;0.50;;
71975;SDS011;68326;52.124;5.424;2023-04-24T00:50:59;1.20;;;0.60;;
71975;SDS011;68326;52.124;5.424;2023-04-24T00:53:25;1.25;;;0.60;;
71975;SDS011;68326;52.124;5.424;2023-04-24T00:55:51;1.33;;;0.70;;
71975;SDS011;68326;52.124;5.424;2023-04-24T00:58:18;2.70;;;0.70;;
71975;SDS011;68326;52.124;5.424;2023-04-24T01:00:45;1.87;;;0.90;;
71975;SDS011;68326;52.124;5.424;2023-04-24T01:03:12;2.20;;;1.00;;
71975;SDS011;68326;52.124;5.424;2023-04-24T01:05:40;2.15;;;1.13;;
71975;SDS011;68326;52.124;5.424;2023-04-24T01:08:07;2.30;;;1.20;;
71975;SDS011;68326;52.124;5.424;2023-04-24T01:10:34;2.67;;;1.13;;
71975;SDS011;68326;52.124;5.424;2023-04-24T01:13:02;3.00;;;0.70;;
71975;SDS011;68326;52.124;5.424;2023-04-24T01:15:29;2.50;;;1.00;;
71975;SDS011;68326;52.124;5.424;2023-04-24T01:17:55;3.17;;;1.33;;
71975;SDS011;68326;52.124;5.424;2023-04-24T01:20:22;4.43;;;1.23;;
71975;SDS011;68326;52.124;5.424;2023-04-24T01:22:50;2.00;;;1.02;;
71975;SDS011;68326;52.124;5.424;2023-04-24T01:25:17;4.00;;;1.30;;
71975;SDS011;68326;52.124;5.424;2023-04-24T01:27:43;1.40;;;0.80;;
71975;SDS011;68326;52.124;5.424;2023-04-24T01:30:11;2.03;;;1.23;;
71975;SDS011;68326;52.124;5.424;2023-04-24T01:32:37;3.10;;;1.40;;
71975;SDS011;68326;52.124;5.424;2023-04-24T01:35:05;3.28;;;1.45;;
71975;SDS011;68326;52.124;5.424;2023-04-24T01:37:32;2.73;;;1.43;;
71975;SDS011;68326;52.124;5.424;2023-04-24T01:39:59;3.53;;;1.50;;
71975;SDS011;68326;52.124;5.424;2023-04-24T01:42:26;2.95;;;1.60;;
71975;SDS011;68326;52.124;5.424;2023-04-24T01:44:52;3.08;;;1.88;;
71975;SDS011;68326;52.124;5.424;2023-04-24T01:47:20;3.47;;;1.90;;
71975;SDS011;68326;52.124;5.424;2023-04-24T01:49:47;3.40;;;1.67;;
71975;SDS011;68326;52.124;5.424;2023-04-24T01:52:14;4.38;;;1.67;;
71975;SDS011;68326;52.124;5.424;2023-04-24T01:54:40;3.95;;;1.42;;
71975;SDS011;68326;52.124;5.424;2023-04-24T01:57:07;4.35;;;2.13;;
71975;SDS011;68326;52.124;5.424;2023-04-24T01:59:34;3.10;;;1.67;;
71975;SDS011;68326;52.124;5.424;2023-04-24T02:02:02;4.30;;;1.97;;
71975;SDS011;68326;52.124;5.424;2023-04-24T02:04:29;4.20;;;2.10;;
71975;SDS011;68326;52.124;5.424;2023-04-24T02:06:55;2.45;;;1.50;;
71975;SDS011;68326;52.124;5.424;2023-04-24T02:09:22;4.10;;;1.70;;
71975;SDS011;68326;52.124;5.424;2023-04-24T02:11:48;3.03;;;1.60;;
71975;SDS011;68326;52.124;5.424;2023-04-24T02:14:15;3.00;;;1.73;;
71975;SDS011;68326;52.124;5.424;2023-04-24T02:16:41;2.95;;;1.45;;
71975;SDS011;68326;52.124;5.424;2023-04-24T02:19:08;2.83;;;1.60;;
71975;SDS011;68326;52.124;5.424;2023-04-24T02:21:35;2.85;;;1.33;;
71975;SDS011;68326;52.124;5.424;2023-04-24T02:24:01;3.30;;;1.70;;
71975;SDS011;68326;52.124;5.424;2023-04-24T02:26:28;2.57;;;1.60;;
71975;SDS011;68326;52.124;5.424;2023-04-24T02:28:54;2.50;;;1.42;;
71975;SDS011;68326;52.124;5.424;2023-04-24T02:31:21;2.60;;;1.60;;
71975;SDS011;68326;52.124;5.424;2023-04-24T02:33:48;2.22;;;1.40;;
71975;SDS011;68326;52.124;5.424;2023-04-24T02:36:14;3.05;;;1.20;;
71975;SDS011;68326;52.124;5.424;2023-04-24T02:38:40;2.17;;;1.17;;
71975;SDS011;68326;52.124;5.424;2023-04-24T02:41:07;2.35;;;1.02;;
71975;SDS011;68326;52.124;5.424;2023-04-24T02:43:33;3.70;;;1.38;;
71975;SDS011;68326;52.124;5.424;2023-04-24T02:46:00;2.90;;;1.38;;
71975;SDS011;68326;52.124;5.424;2023-04-24T02:48:27;2.78;;;1.77;;
71975;SDS011;68326;52.124;5.424;2023-04-24T02:50:53;2.50;;;1.60;;
71975;SDS011;68326;52.124;5.424;2023-04-24T02:53:20;2.42;;;1.45;;
71975;SDS011;68326;52.124;5.424;2023-04-24T02:55:47;2.92;;;1.80;;
71975;SDS011;68326;52.124;5.424;2023-04-24T02:58:13;3.08;;;1.80;;
71975;SDS011;68326;52.124;5.424;2023-04-24T03:00:39;3.22;;;1.85;;
71975;SDS011;68326;52.124;5.424;2023-04-24T03:03:06;3.77;;;1.83;;
71975;SDS011;68326;52.124;5.424;2023-04-24T03:05:33;3.17;;;1.67;;
71975;SDS011;68326;52.124;5.424;2023-04-24T03:08:00;3.10;;;1.90;;
71975;SDS011;68326;52.124;5.424;2023-04-24T03:10:26;2.55;;;1.48;;
71975;SDS011;68326;52.124;5.424;2023-04-24T03:12:52;3.50;;;2.00;;
71975;SDS011;68326;52.124;5.424;2023-04-24T03:15:21;3.90;;;1.63;;
71975;SDS011;68326;52.124;5.424;2023-04-24T03:17:48;4.00;;;1.50;;
71975;SDS011;68326;52.124;5.424;2023-04-24T03:20:15;3.67;;;2.15;;
71975;SDS011;68326;52.124;5.424;2023-04-24T03:22:42;2.50;;;1.38;;
71975;SDS011;68326;52.124;5.424;2023-04-24T03:25:08;4.38;;;1.50;;
71975;SDS011;68326;52.124;5.424;2023-04-24T03:27:35;3.87;;;1.63;;
71975;SDS011;68326;52.124;5.424;2023-04-24T03:30:02;3.53;;;1.73;;
71975;SDS011;68326;52.124;5.424;2023-04-24T03:32:29;3.45;;;1.65;;
71975;SDS011;68326;52.124;5.424;2023-04-24T03:34:56;4.55;;;1.60;;
71975;SDS011;68326;52.124;5.424;2023-04-24T03:37:22;3.05;;;1.88;;
71975;SDS011;68326;52.124;5.424;2023-04-24T03:39:49;2.80;;;1.50;;
71975;SDS011;68326;52.124;5.424;2023-04-24T03:42:15;3.60;;;1.83;;
71975;SDS011;68326;52.124;5.424;2023-04-24T03:44:42;3.28;;;1.80;;
71975;SDS011;68326;52.124;5.424;2023-04-24T03:47:08;3.88;;;1.88;;
71975;SDS011;68326;52.124;5.424;2023-04-24T03:49:35;4.90;;;1.92;;
71975;SDS011;68326;52.124;5.424;2023-04-24T03:52:01;5.00;;;1.97;;
71975;SDS011;68326;52.124;5.424;2023-04-24T03:54:28;3.95;;;1.70;;
71975;SDS011;68326;52.124;5.424;2023-04-24T03:56:54;3.47;;;1.85;;
71975;SDS011;68326;52.124;5.424;2023-04-24T03:59:21;3.50;;;1.90;;
71975;SDS011;68326;52.124;5.424;2023-04-24T04:01:47;3.22;;;1.80;;
71975;SDS011;68326;52.124;5.424;2023-04-24T04:04:14;5.00;;;1.43;;
71975;SDS011;68326;52.124;5.424;2023-04-24T04:06:40;2.97;;;1.73;;
71975;SDS011;68326;52.124;5.424;2023-04-24T04:09:07;5.40;;;1.45;;
71975;SDS011;68326;52.124;5.424;2023-04-24T04:11:34;3.67;;;1.77;;
71975;SDS011;68326;52.124;5.424;2023-04-24T04:14:01;2.75;;;1.45;;
71975;SDS011;68326;52.124;5.424;2023-04-24T04:16:28;3.30;;;1.80;;
71975;SDS011;68326;52.124;5.424;2023-04-24T04:18:55;3.47;;;1.98;;
71975;SDS011;68326;52.124;5.424;2023-04-24T04:21:21;3.28;;;1.35;;
71975;SDS011;68326;52.124;5.424;2023-04-24T04:23:48;3.47;;;1.60;;
71975;SDS011;68326;52.124;5.424;2023-04-24T04:26:14;3.47;;;1.73;;
71975;SDS011;68326;52.124;5.424;2023-04-24T04:28:41;3.73;;;1.60;;
71975;SDS011;68326;52.124;5.424;2023-04-24T04:31:07;3.13;;;1.58;;
71975;SDS011;68326;52.124;5.424;2023-04-24T04:33:34;3.90;;;2.05;;
71975;SDS011;68326;52.124;5.424;2023-04-24T04:36:02;8.52;;;2.08;;
71975;SDS011;68326;52.124;5.424;2023-04-24T04:38:29;4.55;;;2.15;;
71975;SDS011;68326;52.124;5.424;2023-04-24T04:40:56;5.77;;;2.43;;
71975;SDS011;68326;52.124;5.424;2023-04-24T04:43:23;5.18;;;2.50;;
71975;SDS011;68326;52.124;5.424;2023-04-24T04:45:50;4.38;;;2.30;;
71975;SDS011;68326;52.124;5.424;2023-04-24T04:48:18;6.07;;;2.22;;
71975;SDS011;68326;52.124;5.424;2023-04-24T04:50:44;3.50;;;1.75;;
71975;SDS011;68326;52.124;5.424;2023-04-24T04:53:11;4.20;;;2.13;;
71975;SDS011;68326;52.124;5.424;2023-04-24T04:55:37;4.07;;;1.85;;
71975;SDS011;68326;52.124;5.424;2023-04-24T04:58:04;3.35;;;1.60;;
71975;SDS011;68326;52.124;5.424;2023-04-24T05:00:31;3.38;;;1.90;;
71975;SDS011;68326;52.124;5.424;2023-04-24T05:03:01;5.95;;;2.05;;
71975;SDS011;68326;52.124;5.424;2023-04-24T05:05:46;4.23;;;1.60;;
71975;SDS011;68326;52.124;5.424;2023-04-24T05:08:12;3.88;;;1.60;;
71975;SDS011;68326;52.124;5.424;2023-04-24T05:10:52;3.70;;;2.05;;
71975;SDS011;68326;52.124;5.424;2023-04-24T05:13:19;3.72;;;2.08;;
71975;SDS011;68326;52.124;5.424;2023-04-24T05:16:01;3.92;;;2.50;;
71975;SDS011;68326;52.124;5.424;2023-04-24T05:18:27;3.53;;;1.90;;
71975;SDS011;68326;52.124;5.424;2023-04-24T05:20:54;4.65;;;2.17;;
71975;SDS011;68326;52.124;5.424;2023-04-24T05:23:20;4.22;;;2.03;;
71975;SDS011;68326;52.124;5.424;2023-04-24T05:25:47;4.63;;;2.00;;
71975;SDS011;68326;52.124;5.424;2023-04-24T05:28:13;6.22;;;2.25;;
71975;SDS011;68326;52.124;5.424;2023-04-24T05:30:40;3.00;;;1.40;;
71975;SDS011;68326;52.124;5.424;2023-04-24T05:33:06;2.50;;;1.23;;
71975;SDS011;68326;52.124;5.424;2023-04-24T05:35:36;2.70;;;1.05;;
71975;SDS011;68326;52.124;5.424;2023-04-24T05:38:02;2.70;;;1.17;;
71975;SDS011;68326;52.124;5.424;2023-04-24T05:40:29;3.17;;;1.10;;
71975;SDS011;68326;52.124;5.424;2023-04-24T05:42:55;5.73;;;1.20;;
71975;SDS011;68326;52.124;5.424;2023-04-24T05:45:22;3.30;;;1.58;;
71975;SDS011;68326;52.124;5.424;2023-04-24T05:47:48;2.60;;;1.20;;
71975;SDS011;68326;52.124;5.424;2023-04-24T05:50:16;3.80;;;1.52;;
71975;SDS011;68326;52.124;5.424;2023-04-24T05:52:43;3.38;;;1.45;;
71975;SDS011;68326;52.124;5.424;2023-04-24T05:55:09;3.03;;;1.20;;
71975;SDS011;68326;52.124;5.424;2023-04-24T05:57:36;4.70;;;1.50;;
71975;SDS011;68326;52.124;5.424;2023-04-24T06:00:03;3.25;;;1.20;;
71975;SDS011;68326;52.124;5.424;2023-04-24T06:02:30;2.97;;;1.20;;
71975;SDS011;68326;52.124;5.424;2023-04-24T06:04:59;2.78;;;1.38;;
71975;SDS011;68326;52.124;5.424;2023-04-24T06:07:25;3.20;;;1.40;;
71975;SDS011;68326;52.124;5.424;2023-04-24T06:09:52;3.78;;;1.20;;
71975;SDS011;68326;52.124;5.424;2023-04-24T06:12:19;3.55;;;1.25;;
71975;SDS011;68326;52.124;5.424;2023-04-24T06:14:45;2.13;;;0.80;;
71975;SDS011;68326;52.124;5.424;2023-04-24T06:17:12;4.13;;;1.13;;
71975;SDS011;68326;52.124;5.424;2023-04-24T06:19:38;1.33;;;0.37;;
71975;SDS011;68326;52.124;5.424;2023-04-24T06:22:05;1.05;;;0.30;;
71975;SDS011;68326;52.124;5.424;2023-04-24T06:24:34;2.53;;;0.20;;
71975;SDS011;68326;52.124;5.424;2023-04-24T06:27:00;0.93;;;0.20;;
71975;SDS011;68326;52.124;5.424;2023-04-24T06:29:27;0.93;;;0.20;;
71975;SDS011;68326;52.124;5.424;2023-04-24T06:31:53;0.50;;;0.10;;
71975;SDS011;68326;52.124;5.424;2023-04-24T06:34:20;0.32;;;0.10;;
71975;SDS011;68326;52.124;5.424;2023-04-24T06:36:46;0.35;;;0.10;;
71975;SDS011;68326;52.124;5.424;2023-04-24T06:39:13;1.45;;;0.10;;
71975;SDS011;68326;52.124;5.424;2023-04-24T06:41:39;0.50;;;0.20;;
71975;SDS011;68326;52.124;5.424;2023-04-24T06:44:06;2.77;;;0.40;;
71975;SDS011;68326;52.124;5.424;2023-04-24T06:46:33;1.33;;;0.40;;
71975;SDS011;68326;52.124;5.424;2023-04-24T06:49:00;3.78;;;1.15;;
71975;SDS011;68326;52.124;5.424;2023-04-24T06:51:26;4.82;;;2.05;;
71975;SDS011;68326;52.124;5.424;2023-04-24T06:53:53;5.40;;;2.63;;
71975;SDS011;68326;52.124;5.424;2023-04-24T06:56:20;7.63;;;2.77;;
71975;SDS011;68326;52.124;5.424;2023-04-24T06:58:46;7.63;;;3.10;;
71975;SDS011;68326;52.124;5.424;2023-04-24T07:01:13;8.05;;;3.75;;
71975;SDS011;68326;52.124;5.424;2023-04-24T07:03:40;6.85;;;3.00;;
71975;SDS011;68326;52.124;5.424;2023-04-24T07:06:07;9.05;;;3.65;;
71975;SDS011;68326;52.124;5.424;2023-04-24T07:08:34;10.30;;;3.93;;
71975;SDS011;68326;52.124;5.424;2023-04-24T07:11:02;7.47;;;3.53;;
71975;SDS011;68326;52.124;5.424;2023-04-24T07:13:28;9.98;;;3.47;;
71975;SDS011;68326;52.124;5.424;2023-04-24T07:15:55;8.18;;;3.60;;
71975;SDS011;68326;52.124;5.424;2023-04-24T07:18:22;9.75;;;4.18;;
71975;SDS011;68326;52.124;5.424;2023-04-24T07:20:48;10.40;;;3.87;;
71975;SDS011;68326;52.124;5.424;2023-04-24T07:23:18;9.70;;;4.15;;
71975;SDS011;68326;52.124;5.424;2023-04-24T07:25:45;7.30;;;3.90;;
71975;SDS011;68326;52.124;5.424;2023-04-24T07:28:12;8.27;;;4.10;;
71975;SDS011;68326;52.124;5.424;2023-04-24T07:30:39;10.32;;;4.07;;
71975;SDS011;68326;52.124;5.424;2023-04-24T07:33:06;10.73;;;3.70;;
71975;SDS011;68326;52.124;5.424;2023-04-24T07:35:33;7.63;;;3.65;;
71975;SDS011;68326;52.124;5.424;2023-04-24T07:38:00;10.15;;;3.83;;
71975;SDS011;68326;52.124;5.424;2023-04-24T07:40:26;9.00;;;3.88;;
71975;SDS011;68326;52.124;5.424;2023-04-24T07:42:53;9.05;;;3.53;;
71975;SDS011;68326;52.124;5.424;2023-04-24T07:45:19;8.57;;;3.40;;
71975;SDS011;68326;52.124;5.424;2023-04-24T07:47:46;6.60;;;3.42;;
71975;SDS011;68326;52.124;5.424;2023-04-24T07:50:12;7.88;;;3.67;;
71975;SDS011;68326;52.124;5.424;2023-04-24T07:52:39;7.93;;;3.65;;
71975;SDS011;68326;52.124;5.424;2023-04-24T07:55:05;7.80;;;3.15;;
71975;SDS011;68326;52.124;5.424;2023-04-24T07:57:33;8.87;;;3.60;;
71975;SDS011;68326;52.124;5.424;2023-04-24T08:00:00;8.70;;;3.38;;
71975;SDS011;68326;52.124;5.424;2023-04-24T08:02:28;12.05;;;4.00;;
71975;SDS011;68326;52.124;5.424;2023-04-24T08:04:55;6.95;;;3.30;;
71975;SDS011;68326;52.124;5.424;2023-04-24T08:07:24;11.00;;;4.07;;
71975;SDS011;68326;52.124;5.424;2023-04-24T08:09:51;8.10;;;3.60;;
71975;SDS011;68326;52.124;5.424;2023-04-24T08:12:17;12.38;;;3.15;;
71975;SDS011;68326;52.124;5.424;2023-04-24T08:14:44;10.43;;;3.78;;
71975;SDS011;68326;52.124;5.424;2023-04-24T08:17:10;8.65;;;3.25;;
71975;SDS011;68326;52.124;5.424;2023-04-24T08:19:36;6.80;;;2.92;;
71975;SDS011;68326;52.124;5.424;2023-04-24T08:22:03;9.53;;;2.83;;
71975;SDS011;68326;52.124;5.424;2023-04-24T08:24:30;7.93;;;2.42;;
71975;SDS011;68326;52.124;5.424;2023-04-24T08:26:56;6.25;;;2.30;;
71975;SDS011;68326;52.124;5.424;2023-04-24T08:29:24;6.70;;;1.63;;
71975;SDS011;68326;52.124;5.424;2023-04-24T08:31:50;6.03;;;1.85;;
71975;SDS011;68326;52.124;5.424;2023-04-24T08:34:17;8.77;;;1.60;;
71975;SDS011;68326;52.124;5.424;2023-04-24T08:36:44;6.70;;;1.35;;
71975;SDS011;68326;52.124;5.424;2023-04-24T08:39:13;7.55;;;1.70;;
71975;SDS011;68326;52.124;5.424;2023-04-24T08:41:41;5.75;;;1.38;;
71975;SDS011;68326;52.124;5.424;2023-04-24T08:44:09;5.60;;;1.30;;
71975;SDS011;68326;52.124;5.424;2023-04-24T08:46:36;4.43;;;1.03;;
71975;SDS011;68326;52.124;5.424;2023-04-24T08:49:03;6.93;;;1.13;;
71975;SDS011;68326;52.124;5.424;2023-04-24T08:51:30;8.50;;;1.30;;
71975;SDS011;68326;52.124;5.424;2023-04-24T08:53:57;11.35;;;1.00;;
71975;SDS011;68326;52.124;5.424;2023-04-24T08:56:24;8.63;;;2.20;;
71975;SDS011;68326;52.124;5.424;2023-04-24T08:58:51;6.83;;;1.00;;
71975;SDS011;68326;52.124;5.424;2023-04-24T09:01:19;8.18;;;1.25;;
71975;SDS011;68326;52.124;5.424;2023-04-24T09:03:48;5.65;;;1.00;;
71975;SDS011;68326;52.124;5.424;2023-04-24T09:06:16;9.07;;;1.23;;
71975;SDS011;68326;52.124;5.424;2023-04-24T09:08:44;7.28;;;0.80;;
71975;SDS011;68326;52.124;5.424;2023-04-24T09:11:11;5.00;;;0.70;;
71975;SDS011;68326;52.124;5.424;2023-04-24T09:13:38;6.20;;;0.75;;
71975;SDS011;68326;52.124;5.424;2023-04-24T09:16:05;8.23;;;1.30;;
71975;SDS011;68326;52.124;5.424;2023-04-24T09:18:32;9.40;;;0.63;;
71975;SDS011;68326;52.124;5.424;2023-04-24T09:21:03;8.00;;;1.00;;
71975;SDS011;68326;52.124;5.424;2023-04-24T09:23:33;4.47;;;0.83;;
71975;SDS011;68326;52.124;5.424;2023-04-24T09:26:00;7.85;;;1.10;;
71975;SDS011;68326;52.124;5.424;2023-04-24T09:28:32;7.88;;;0.93;;
71975;SDS011;68326;52.124;5.424;2023-04-24T09:31:04;4.85;;;0.63;;
71975;SDS011;68326;52.124;5.424;2023-04-24T09:33:33;6.78;;;0.90;;
71975;SDS011;68326;52.124;5.424;2023-04-24T09:36:00;5.73;;;0.83;;
71975;SDS011;68326;52.124;5.424;2023-04-24T09:38:35;8.95;;;1.15;;
71975;SDS011;68326;52.124;5.424;2023-04-24T09:41:03;7.03;;;1.00;;
71975;SDS011;68326;52.124;5.424;2023-04-24T09:43:32;6.88;;;0.70;;
71975;SDS011;68326;52.124;5.424;2023-04-24T09:45:59;1.35;;;0.60;;
71975;SDS011;68326;52.124;5.424;2023-04-24T09:48:32;4.43;;;0.73;;
71975;SDS011;68326;52.124;5.424;2023-04-24T09:51:00;3.30;;;0.43;;
71975;SDS011;68326;52.124;5.424;2023-04-24T09:53:27;3.95;;;0.50;;
71975;SDS011;68326;52.124;5.424;2023-04-24T09:55:54;5.70;;;0.75;;
71975;SDS011;68326;52.124;5.424;2023-04-24T09:58:24;6.60;;;0.77;;
71975;SDS011;68326;52.124;5.424;2023-04-24T10:00:55;5.93;;;0.80;;
71975;SDS011;68326;52.124;5.424;2023-04-24T10:03:30;8.13;;;0.82;;
71975;SDS011;68326;52.124;5.424;2023-04-24T10:06:01;4.78;;;0.88;;
71975;SDS011;68326;52.124;5.424;2023-04-24T10:08:34;6.90;;;0.47;;
71975;SDS011;68326;52.124;5.424;2023-04-24T10:11:02;2.47;;;0.30;;
71975;SDS011;68326;52.124;5.424;2023-04-24T10:13:29;2.37;;;0.50;;
71975;SDS011;68326;52.124;5.424;2023-04-24T10:15:56;5.95;;;0.80;;
71975;SDS011;68326;52.124;5.424;2023-04-24T10:18:26;10.30;;;1.17;;
71975;SDS011;68326;52.124;5.424;2023-04-24T10:20:53;2.88;;;0.50;;
71975;SDS011;68326;52.124;5.424;2023-04-24T10:23:21;4.53;;;0.57;;
71975;SDS011;68326;52.124;5.424;2023-04-24T10:25:49;4.63;;;0.50;;
71975;SDS011;68326;52.124;5.424;2023-04-24T10:28:17;2.42;;;0.60;;
71975;SDS011;68326;52.124;5.424;2023-04-24T10:30:45;3.30;;;0.38;;
71975;SDS011;68326;52.124;5.424;2023-04-24T10:33:12;4.88;;;0.60;;
71975;SDS011;68326;52.124;5.424;2023-04-24T10:35:44;3.40;;;0.30;;
71975;SDS011;68326;52.124;5.424;2023-04-24T10:38:21;4.60;;;0.50;;
71975;SDS011;68326;52.124;5.424;2023-04-24T10:40:51;3.75;;;0.35;;
71975;SDS011;68326;52.124;5.424;2023-04-24T10:43:17;2.75;;;0.20;;
71975;SDS011;68326;52.124;5.424;2023-04-24T10:46:04;1.67;;;0.30;;
71975;SDS011;68326;52.124;5.424;2023-04-24T10:48:32;1.50;;;0.30;;
71975;SDS011;68326;52.124;5.424;2023-04-24T10:50:59;2.20;;;0.10;;
71975;SDS011;68326;52.124;5.424;2023-04-24T10:53:29;1.67;;;0.45;;
71975;SDS011;68326;52.124;5.424;2023-04-24T10:55:57;2.67;;;0.50;;
71975;SDS011;68326;52.124;5.424;2023-04-24T10:58:41;0.80;;;0.28;;
71975;SDS011;68326;52.124;5.424;2023-04-24T11:01:31;3.08;;;0.20;;
71975;SDS011;68326;52.124;5.424;2023-04-24T11:03:59;0.90;;;0.30;;
71975;SDS011;68326;52.124;5.424;2023-04-24T11:06:32;2.25;;;0.20;;
71975;SDS011;68326;52.124;5.424;2023-04-24T11:09:06;2.20;;;0.20;;
71975;SDS011;68326;52.124;5.424;2023-04-24T11:11:35;4.43;;;0.22;;
71975;SDS011;68326;52.124;5.424;2023-04-24T11:14:04;4.07;;;0.20;;
71975;SDS011;68326;52.124;5.424;2023-04-24T11:19:05;5.97;;;0.40;;
71975;SDS011;68326;52.124;5.424;2023-04-24T11:21:39;0.65;;;0.10;;
71975;SDS011;68326;52.124;5.424;2023-04-24T11:29:39;5.30;;;0.20;;
71975;SDS011;68326;52.124;5.424;2023-04-24T11:32:33;2.25;;;0.30;;
71975;SDS011;68326;52.124;5.424;2023-04-24T11:35:02;2.83;;;0.20;;
71975;SDS011;68326;52.124;5.424;2023-04-24T11:37:36;4.25;;;0.50;;
71975;SDS011;68326;52.124;5.424;2023-04-24T11:40:04;1.45;;;0.32;;
71975;SDS011;68326;52.124;5.424;2023-04-24T11:42:36;2.93;;;0.37;;
71975;SDS011;68326;52.124;5.424;2023-04-24T11:45:14;1.27;;;0.20;;
71975;SDS011;68326;52.124;5.424;2023-04-24T11:47:42;2.35;;;0.38;;
71975;SDS011;68326;52.124;5.424;2023-04-24T11:50:17;3.10;;;0.20;;
71975;SDS011;68326;52.124;5.424;2023-04-24T11:52:46;1.50;;;0.10;;
71975;SDS011;68326;52.124;5.424;2023-04-24T11:57:46;2.15;;;0.28;;
71975;SDS011;68326;52.124;5.424;2023-04-24T12:00:17;0.90;;;0.20;;
71975;SDS011;68326;52.124;5.424;2023-04-24T12:02:46;1.55;;;0.10;;
71975;SDS011;68326;52.124;5.424;2023-04-24T12:05:24;1.05;;;0.10;;
71975;SDS011;68326;52.124;5.424;2023-04-24T12:07:54;2.00;;;0.20;;
71975;SDS011;68326;52.124;5.424;2023-04-24T12:10:21;1.63;;;0.10;;
71975;SDS011;68326;52.124;5.424;2023-04-24T12:12:49;4.32;;;0.43;;
71975;SDS011;68326;52.124;5.424;2023-04-24T12:15:18;1.38;;;0.10;;
71975;SDS011;68326;52.124;5.424;2023-04-24T12:17:45;2.70;;;0.32;;
71975;SDS011;68326;52.124;5.424;2023-04-24T12:20:13;2.63;;;0.20;;
71975;SDS011;68326;52.124;5.424;2023-04-24T12:25:14;2.88;;;0.30;;
71975;SDS011;68326;52.124;5.424;2023-04-24T12:27:43;3.45;;;0.25;;
71975;SDS011;68326;52.124;5.424;2023-04-24T12:30:15;3.30;;;0.20;;
71975;SDS011;68326;52.124;5.424;2023-04-24T12:32:48;4.07;;;0.40;;
71975;SDS011;68326;52.124;5.424;2023-04-24T12:35:19;3.28;;;0.28;;
71975;SDS011;68326;52.124;5.424;2023-04-24T12:37:47;2.45;;;0.20;;
71975;SDS011;68326;52.124;5.424;2023-04-24T12:40:14;6.75;;;0.30;;
71975;SDS011;68326;52.124;5.424;2023-04-24T12:42:45;3.70;;;0.30;;
71975;SDS011;68326;52.124;5.424;2023-04-24T12:45:13;6.43;;;0.47;;
71975;SDS011;68326;52.124;5.424;2023-04-24T12:47:41;2.85;;;0.60;;
71975;SDS011;68326;52.124;5.424;2023-04-24T12:50:09;4.57;;;0.40;;
71975;SDS011;68326;52.124;5.424;2023-04-24T12:52:37;3.30;;;0.40;;
71975;SDS011;68326;52.124;5.424;2023-04-24T12:55:04;3.45;;;0.60;;
71975;SDS011;68326;52.124;5.424;2023-04-24T12:57:34;2.20;;;0.20;;
71975;SDS011;68326;52.124;5.424;2023-04-24T13:00:01;5.78;;;0.50;;
71975;SDS011;68326;52.124;5.424;2023-04-24T13:02:29;2.25;;;0.25;;
71975;SDS011;68326;52.124;5.424;2023-04-24T13:04:58;4.05;;;0.50;;
71975;SDS011;68326;52.124;5.424;2023-04-24T13:07:25;4.85;;;0.52;;
71975;SDS011;68326;52.124;5.424;2023-04-24T13:09:54;8.53;;;0.90;;
71975;SDS011;68326;52.124;5.424;2023-04-24T13:12:21;6.78;;;0.50;;
71975;SDS011;68326;52.124;5.424;2023-04-24T13:14:49;3.00;;;0.73;;
71975;SDS011;68326;52.124;5.424;2023-04-24T13:17:16;4.30;;;0.40;;
71975;SDS011;68326;52.124;5.424;2023-04-24T13:19:43;5.65;;;0.80;;
71975;SDS011;68326;52.124;5.424;2023-04-24T13:22:11;4.67;;;0.80;;
71975;SDS011;68326;52.124;5.424;2023-04-24T13:24:38;6.15;;;0.73;;
71975;SDS011;68326;52.124;5.424;2023-04-24T13:27:07;6.88;;;0.70;;
71975;SDS011;68326;52.124;5.424;2023-04-24T13:29:34;7.57;;;0.60;;
71975;SDS011;68326;52.124;5.424;2023-04-24T13:32:01;9.30;;;0.90;;
71975;SDS011;68326;52.124;5.424;2023-04-24T13:34:28;5.87;;;1.43;;
71975;SDS011;68326;52.124;5.424;2023-04-24T13:36:55;5.93;;;0.65;;
71975;SDS011;68326;52.124;5.424;2023-04-24T13:39:23;5.05;;;0.30;;
71975;SDS011;68326;52.124;5.424;2023-04-24T13:41:50;6.97;;;0.70;;
71975;SDS011;68326;52.124;5.424;2023-04-24T13:44:18;5.03;;;0.70;;
71975;SDS011;68326;52.124;5.424;2023-04-24T13:46:46;6.83;;;0.80;;
71975;SDS011;68326;52.124;5.424;2023-04-24T13:49:14;6.78;;;1.10;;
71975;SDS011;68326;52.124;5.424;2023-04-24T13:51:41;6.80;;;1.15;;
71975;SDS011;68326;52.124;5.424;2023-04-24T13:54:08;4.70;;;0.70;;
71975;SDS011;68326;52.124;5.424;2023-04-24T13:56:35;3.70;;;0.50;;
71975;SDS011;68326;52.124;5.424;2023-04-24T13:59:01;5.90;;;0.90;;
71975;SDS011;68326;52.124;5.424;2023-04-24T14:01:28;5.07;;;0.90;;
71975;SDS011;68326;52.124;5.424;2023-04-24T14:03:55;4.07;;;0.80;;
71975;SDS011;68326;52.124;5.424;2023-04-24T14:06:22;7.93;;;1.10;;
71975;SDS011;68326;52.124;5.424;2023-04-24T14:08:49;5.75;;;0.95;;
71975;SDS011;68326;52.124;5.424;2023-04-24T14:11:16;6.73;;;0.83;;
71975;SDS011;68326;52.124;5.424;2023-04-24T14:13:43;5.60;;;0.98;;
71975;SDS011;68326;52.124;5.424;2023-04-24T14:16:11;9.50;;;1.40;;
71975;SDS011;68326;52.124;5.424;2023-04-24T14:18:38;3.78;;;0.80;;
71975;SDS011;68326;52.124;5.424;2023-04-24T14:21:04;3.97;;;0.75;;
71975;SDS011;68326;52.124;5.424;2023-04-24T14:23:31;5.80;;;0.93;;
71975;SDS011;68326;52.124;5.424;2023-04-24T14:25:58;8.90;;;1.00;;
71975;SDS011;68326;52.124;5.424;2023-04-24T14:28:25;7.43;;;0.93;;
71975;SDS011;68326;52.124;5.424;2023-04-24T14:30:52;8.73;;;1.30;;
71975;SDS011;68326;52.124;5.424;2023-04-24T14:33:19;4.93;;;0.90;;
71975;SDS011;68326;52.124;5.424;2023-04-24T14:35:46;6.70;;;0.77;;
71975;SDS011;68326;52.124;5.424;2023-04-24T14:38:12;9.68;;;1.50;;
71975;SDS011;68326;52.124;5.424;2023-04-24T14:40:39;7.88;;;1.02;;
71975;SDS011;68326;52.124;5.424;2023-04-24T14:43:09;5.13;;;1.05;;
71975;SDS011;68326;52.124;5.424;2023-04-24T14:45:36;8.68;;;1.13;;
71975;SDS011;68326;52.124;5.424;2023-04-24T14:48:03;6.47;;;1.03;;
71975;SDS011;68326;52.124;5.424;2023-04-24T14:50:30;9.23;;;1.13;;
71975;SDS011;68326;52.124;5.424;2023-04-24T14:52:56;8.15;;;1.65;;
71975;SDS011;68326;52.124;5.424;2023-04-24T14:55:24;11.65;;;1.52;;
71975;SDS011;68326;52.124;5.424;2023-04-24T14:57:52;4.68;;;1.08;;
71975;SDS011;68326;52.124;5.424;2023-04-24T15:00:19;8.83;;;1.60;;
71975;SDS011;68326;52.124;5.424;2023-04-24T15:02:46;7.97;;;1.25;;
71975;SDS011;68326;52.124;5.424;2023-04-24T15:05:13;9.75;;;1.40;;